Time;durP1;ratioP1;P1;durP2;ratioP2;P2;SDS_P1;SDS_P2;PMS_P1;PMS_P2;Temp;Humidity;BMP_temperature;BMP_pressure;BME280_temperature;BME280_humidity;BME280_pressure;Samples;Min_cycle;Max_cycle;Signal;HPM_P1;HPM_P2
2022/01/14 00:01:41;;;;;;;204.68;32.95;;;;;;;;;;5092830;28;20433;-72
2022/01/14 00:04:07;;;;;;;181.40;32.17;;;;;;;;;;5092639;28;20085;-73
2022/01/14 00:06:33;;;;;;;257.58;36.83;;;;;;;;;;5092648;28;20028;-73
2022/01/14 00:09:06;;;;;;;185.10;32.47;;;;;;;;;;5092608;28;20024;-72
2022/01/14 00:11:34;;;;;;;214.38;35.00;;;;;;;;;;5092689;28;20358;-73
2022/01/14 00:16:35;;;;;;;187.88;35.22;;;;;;;;;;5092398;28;20476;-73
2022/01/14 00:19:01;;;;;;;183.75;32.85;;;;;;;;;;5073780;28;20028;-73
2022/01/14 00:21:29;;;;;;;173.23;32.33;;;;;;;;;;5092512;28;20028;-73
2022/01/14 00:24:07;;;;;;;190.70;33.30;;;;;;;;;;5092198;28;20031;-73
2022/01/14 00:32:18;;;;;;;237.90;36.22;;;;;;;;;;5092193;28;20055;-73
2022/01/14 00:34:44;;;;;;;175.18;35.08;;;;;;;;;;5091982;28;20037;-73
2022/01/14 00:37:14;;;;;;;200.23;34.97;;;;;;;;;;5091911;28;20024;-73
2022/01/14 00:39:40;;;;;;;226.73;36.92;;;;;;;;;;5091787;28;20107;-73
2022/01/14 00:42:07;;;;;;;209.52;34.22;;;;;;;;;;5091625;28;20027;-73
2022/01/14 00:44:33;;;;;;;169.82;33.97;;;;;;;;;;5091802;28;20109;-73
2022/01/14 00:47:02;;;;;;;197.88;34.72;;;;;;;;;;5091807;28;20024;-73
2022/01/14 00:49:28;;;;;;;180.20;33.80;;;;;;;;;;5091754;28;20078;-73
2022/01/14 00:51:54;;;;;;;175.73;34.22;;;;;;;;;;5091732;28;20059;-73
2022/01/14 00:54:20;;;;;;;206.38;34.50;;;;;;;;;;5091623;28;20040;-73
2022/01/14 00:57:00;;;;;;;180.20;33.83;;;;;;;;;;5091488;28;20505;-73
2022/01/14 00:59:27;;;;;;;162.70;31.90;;;;;;;;;;5071510;28;20074;-73
2022/01/14 01:01:59;;;;;;;166.15;32.97;;;;;;;;;;5102358;28;20027;-73
2022/01/14 01:04:30;;;;;;;165.07;32.42;;;;;;;;;;5111497;28;20024;-73
2022/01/14 01:06:59;;;;;;;193.52;36.65;;;;;;;;;;5111423;28;20120;-73
2022/01/14 01:09:26;;;;;;;201.65;35.28;;;;;;;;;;5111963;28;20126;-74
2022/01/14 01:15:04;;;;;;;164.07;33.55;;;;;;;;;;5111830;28;20036;-73
2022/01/14 01:17:19;;;;;;;172.10;32.97;;;;;;;;;;5110980;28;20032;-73
2022/01/14 01:19:45;;;;;;;179.07;33.78;;;;;;;;;;5111879;28;20028;-73
2022/01/14 01:22:11;;;;;;;208.18;37.22;;;;;;;;;;5111808;28;20062;-73
2022/01/14 01:24:37;;;;;;;186.88;36.97;;;;;;;;;;5111771;28;20055;-73
2022/01/14 01:27:07;;;;;;;213.48;37.78;;;;;;;;;;5111753;28;20032;-73
2022/01/14 01:32:06;;;;;;;220.00;39.15;;;;;;;;;;5091697;28;20106;-73
2022/01/14 01:34:32;;;;;;;206.57;36.47;;;;;;;;;;5091360;28;20032;-73
2022/01/14 01:36:58;;;;;;;236.80;37.97;;;;;;;;;;5091262;28;20020;-73
2022/01/14 01:39:26;;;;;;;250.32;37.95;;;;;;;;;;5073171;28;20370;-73
2022/01/14 01:41:55;;;;;;;307.58;41.45;;;;;;;;;;5091207;28;20378;-73
2022/01/14 01:44:22;;;;;;;263.02;42.00;;;;;;;;;;5091231;28;20054;-73
2022/01/14 01:46:49;;;;;;;284.35;42.65;;;;;;;;;;5091323;28;20020;-73
2022/01/14 01:49:19;;;;;;;264.30;40.90;;;;;;;;;;5091346;28;20016;-73
2022/01/14 01:51:46;;;;;;;249.32;40.13;;;;;;;;;;5072810;28;20505;-73
2022/01/14 01:54:12;;;;;;;222.15;39.53;;;;;;;;;;5091193;28;20032;-73
2022/01/14 01:56:38;;;;;;;256.70;40.13;;;;;;;;;;5090878;28;20120;-73
2022/01/14 01:59:05;;;;;;;195.55;36.80;;;;;;;;;;5090955;28;20020;-73
2022/01/14 02:01:32;;;;;;;205.48;34.75;;;;;;;;;;5091125;28;20092;-73
2022/01/14 02:03:58;;;;;;;261.02;42.08;;;;;;;;;;5072874;28;20028;-73
2022/01/14 02:06:25;;;;;;;230.30;37.47;;;;;;;;;;5091275;28;20031;-73
2022/01/14 02:08:51;;;;;;;246.88;39.78;;;;;;;;;;5090975;28;20031;-73
2022/01/14 02:11:17;;;;;;;206.50;35.00;;;;;;;;;;5091032;28;20028;-73
2022/01/14 02:13:44;;;;;;;212.68;38.38;;;;;;;;;;5090807;28;20500;-72
2022/01/14 02:19:11;;;;;;;238.95;40.17;;;;;;;;;;5094974;28;20063;-73
2022/01/14 02:26:50;;;;;;;256.77;38.65;;;;;;;;;;5094783;28;20060;-73
2022/01/14 02:29:17;;;;;;;266.30;40.30;;;;;;;;;;5093134;28;20031;-73
2022/01/14 02:31:43;;;;;;;240.35;40.20;;;;;;;;;;5074061;28;20024;-73
2022/01/14 02:34:10;;;;;;;225.27;37.90;;;;;;;;;;5055744;28;20028;-73
2022/01/14 02:36:36;;;;;;;230.57;37.97;;;;;;;;;;5073884;28;20695;-73
2022/01/14 02:39:03;;;;;;;228.13;39.33;;;;;;;;;;5074063;28;20016;-73
2022/01/14 02:41:29;;;;;;;215.63;38.38;;;;;;;;;;5074118;28;20074;-73
2022/01/14 02:43:56;;;;;;;279.65;42.08;;;;;;;;;;5073883;28;20025;-73
2022/01/14 02:46:22;;;;;;;282.98;40.67;;;;;;;;;;5074000;28;20103;-73
2022/01/14 02:48:48;;;;;;;244.27;38.47;;;;;;;;;;5073684;28;20549;-73
2022/01/14 02:51:17;;;;;;;198.02;36.03;;;;;;;;;;5074012;28;20036;-73
2022/01/14 02:53:56;;;;;;;295.25;39.97;;;;;;;;;;5093749;28;20410;-73
2022/01/14 02:56:24;;;;;;;303.85;42.45;;;;;;;;;;5075314;28;20036;-73
2022/01/14 02:58:51;;;;;;;329.63;42.45;;;;;;;;;;5077156;28;20136;-73
2022/01/14 03:01:24;;;;;;;283.83;42.03;;;;;;;;;;5073417;28;20029;-73
2022/01/14 03:03:54;;;;;;;276.85;41.17;;;;;;;;;;5073429;28;20042;-73
2022/01/14 03:06:20;;;;;;;234.43;38.47;;;;;;;;;;5073413;28;20032;-73
2022/01/14 03:08:47;;;;;;;301.75;43.25;;;;;;;;;;5073229;28;20025;-73
2022/01/14 03:11:15;;;;;;;235.57;38.72;;;;;;;;;;5073331;28;20160;-73
2022/01/14 03:13:42;;;;;;;322.30;43.47;;;;;;;;;;5073067;28;20374;-73
2022/01/14 03:16:08;;;;;;;205.15;37.55;;;;;;;;;;5073089;28;20091;-73
2022/01/14 03:18:46;;;;;;;232.00;39.22;;;;;;;;;;5073211;28;20028;-73
2022/01/14 03:21:14;;;;;;;257.58;39.80;;;;;;;;;;5055375;28;20099;-73
2022/01/14 03:23:58;;;;;;;298.83;43.25;;;;;;;;;;5073155;28;20111;-73
2022/01/14 03:26:24;;;;;;;313.67;43.40;;;;;;;;;;5073031;28;20044;-73
2022/01/14 03:28:50;;;;;;;251.15;40.05;;;;;;;;;;5071716;28;20434;-73
2022/01/14 03:31:16;;;;;;;241.18;40.20;;;;;;;;;;5037157;28;20487;-73
2022/01/14 03:33:43;;;;;;;213.38;38.33;;;;;;;;;;5052832;28;20037;-73
2022/01/14 03:36:09;;;;;;;237.63;38.45;;;;;;;;;;5034548;28;20513;-73
2022/01/14 03:38:35;;;;;;;172.18;35.80;;;;;;;;;;5052722;28;20083;-73
2022/01/14 03:41:02;;;;;;;205.57;36.22;;;;;;;;;;5052616;28;20025;-73
2022/01/14 03:43:28;;;;;;;166.75;33.58;;;;;;;;;;5052637;28;20112;-73
2022/01/14 03:45:54;;;;;;;205.27;36.72;;;;;;;;;;5052793;28;20052;-73
2022/01/14 03:48:24;;;;;;;223.15;37.33;;;;;;;;;;5052696;28;20065;-73
2022/01/14 03:50:50;;;;;;;183.00;36.88;;;;;;;;;;5034668;28;20037;-73
2022/01/14 03:53:17;;;;;;;257.88;39.80;;;;;;;;;;5069316;28;20040;-73
2022/01/14 03:55:45;;;;;;;235.00;38.45;;;;;;;;;;5072443;28;20079;-73
2022/01/14 03:58:11;;;;;;;251.38;38.67;;;;;;;;;;5089565;28;20109;-73
2022/01/14 04:00:37;;;;;;;229.38;38.58;;;;;;;;;;5074453;28;20028;-73
2022/01/14 04:03:04;;;;;;;252.30;41.10;;;;;;;;;;5092664;28;20454;-73
2022/01/14 04:05:30;;;;;;;254.63;39.60;;;;;;;;;;5092496;28;20052;-73
2022/01/14 04:07:56;;;;;;;260.55;39.45;;;;;;;;;;5092436;28;20039;-73
2022/01/14 04:10:25;;;;;;;293.83;40.63;;;;;;;;;;5092366;28;20035;-73
2022/01/14 04:15:44;;;;;;;306.73;43.25;;;;;;;;;;5092247;28;20123;-73
2022/01/14 04:18:15;;;;;;;258.67;39.88;;;;;;;;;;5092371;28;20474;-73
2022/01/14 04:20:42;;;;;;;240.00;39.85;;;;;;;;;;5092683;28;20107;-73
2022/01/14 04:23:11;;;;;;;267.70;42.17;;;;;;;;;;5092288;28;20107;-72
2022/01/14 04:25:37;;;;;;;266.58;39.33;;;;;;;;;;5092167;28;20577;-73
2022/01/14 04:28:04;;;;;;;318.02;42.22;;;;;;;;;;5092112;28;20070;-73
2022/01/14 04:30:30;;;;;;;341.45;44.58;;;;;;;;;;5080531;28;20386;-73
2022/01/14 04:32:57;;;;;;;262.42;40.15;;;;;;;;;;5071721;28;20030;-73
2022/01/14 04:35:23;;;;;;;402.38;47.08;;;;;;;;;;5071489;28;20035;-73
2022/01/14 04:37:50;;;;;;;234.95;39.17;;;;;;;;;;5071758;28;20075;-73
2022/01/14 04:40:16;;;;;;;291.48;40.65;;;;;;;;;;5071169;28;20077;-73
2022/01/14 04:42:43;;;;;;;272.73;40.92;;;;;;;;;;5071701;28;20381;-73
2022/01/14 04:45:11;;;;;;;388.55;46.83;;;;;;;;;;5071573;28;20450;-73
2022/01/14 04:47:46;;;;;;;389.48;44.58;;;;;;;;;;5071685;28;20037;-73
2022/01/14 04:50:22;;;;;;;356.73;44.55;;;;;;;;;;5071755;28;20024;-73
2022/01/14 04:52:48;;;;;;;332.77;43.50;;;;;;;;;;5066568;28;20063;-73
2022/01/14 04:55:16;;;;;;;352.80;45.92;;;;;;;;;;5091710;28;20123;-73
2022/01/14 04:57:43;;;;;;;366.67;46.88;;;;;;;;;;5091519;28;20052;-73
2022/01/14 05:00:11;;;;;;;463.63;49.45;;;;;;;;;;5091637;28;20500;-73
2022/01/14 05:02:37;;;;;;;367.88;47.45;;;;;;;;;;5073076;28;20017;-73
2022/01/14 05:05:04;;;;;;;346.92;45.03;;;;;;;;;;5091678;28;20032;-73
2022/01/14 05:07:30;;;;;;;418.08;48.78;;;;;;;;;;5091518;28;20107;-73
2022/01/14 05:12:25;;;;;;;381.92;47.15;;;;;;;;;;5091511;28;20102;-73
2022/01/14 05:14:51;;;;;;;400.65;48.13;;;;;;;;;;5091501;28;20020;-73
2022/01/14 05:17:17;;;;;;;308.63;43.33;;;;;;;;;;5091435;28;20021;-73
2022/01/14 05:19:43;;;;;;;404.10;47.33;;;;;;;;;;5085934;28;20087;-73
2022/01/14 05:22:09;;;;;;;379.73;45.03;;;;;;;;;;5088702;28;20111;-73
2022/01/14 05:24:35;;;;;;;420.13;49.55;;;;;;;;;;5073196;28;20024;-73
2022/01/14 05:27:01;;;;;;;253.73;40.15;;;;;;;;;;5073233;28;20032;-73
2022/01/14 05:29:27;;;;;;;397.23;48.28;;;;;;;;;;5091243;28;20699;-73
2022/01/14 05:32:02;;;;;;;539.15;58.45;;;;;;;;;;5091384;28;20031;-73
2022/01/14 05:34:28;;;;;;;395.88;48.42;;;;;;;;;;5091175;28;20019;-73
2022/01/14 05:36:54;;;;;;;356.50;45.72;;;;;;;;;;5091231;28;20035;-73
2022/01/14 05:39:20;;;;;;;428.00;49.97;;;;;;;;;;5091359;28;20024;-73
2022/01/14 05:41:49;;;;;;;422.05;51.97;;;;;;;;;;5091117;28;20545;-73
2022/01/14 05:44:15;;;;;;;412.75;50.35;;;;;;;;;;5091316;28;20437;-73
2022/01/14 05:46:41;;;;;;;419.17;50.15;;;;;;;;;;5091342;28;20135;-73
2022/01/14 05:49:07;;;;;;;344.50;46.53;;;;;;;;;;5091267;28;20031;-73
2022/01/14 05:51:33;;;;;;;248.02;40.78;;;;;;;;;;5091931;28;20032;-73
2022/01/14 05:53:59;;;;;;;323.38;43.75;;;;;;;;;;5094998;28;20024;-73
2022/01/14 05:56:25;;;;;;;339.50;45.70;;;;;;;;;;5094828;28;20027;-73
2022/01/14 05:58:51;;;;;;;349.77;46.33;;;;;;;;;;5093217;28;20082;-73
2022/01/14 06:01:17;;;;;;;315.73;43.38;;;;;;;;;;5095027;28;20016;-73
2022/01/14 06:03:43;;;;;;;237.07;37.10;;;;;;;;;;5094989;28;20477;-73
2022/01/14 06:06:09;;;;;;;301.55;44.85;;;;;;;;;;5094841;28;20048;-73
2022/01/14 06:08:35;;;;;;;262.85;40.20;;;;;;;;;;5094751;28;20035;-73
2022/01/14 06:11:01;;;;;;;212.07;36.35;;;;;;;;;;5094761;28;20378;-73
2022/01/14 06:13:27;;;;;;;333.00;44.47;;;;;;;;;;5094587;28;20039;-73
2022/01/14 06:15:53;;;;;;;164.13;34.63;;;;;;;;;;5094682;28;20070;-73
2022/01/14 06:18:19;;;;;;;297.02;43.80;;;;;;;;;;5094388;28;20057;-73
2022/01/14 06:20:46;;;;;;;317.98;45.55;;;;;;;;;;5094874;28;20028;-72
2022/01/14 06:23:12;;;;;;;365.15;46.95;;;;;;;;;;5094558;28;20020;-73
2022/01/14 06:25:39;;;;;;;213.88;38.83;;;;;;;;;;5094619;28;20020;-73
2022/01/14 06:28:05;;;;;;;267.58;43.90;;;;;;;;;;5076204;28;20496;-73
2022/01/14 06:30:31;;;;;;;254.52;42.17;;;;;;;;;;5082684;28;20145;-73
2022/01/14 06:32:57;;;;;;;314.75;45.65;;;;;;;;;;5074182;28;20435;-73
2022/01/14 06:35:23;;;;;;;221.95;41.42;;;;;;;;;;5074028;28;20082;-73
2022/01/14 06:37:50;;;;;;;220.65;42.38;;;;;;;;;;5074200;28;20048;-73
2022/01/14 06:40:16;;;;;;;177.38;38.75;;;;;;;;;;5073903;28;20103;-73
2022/01/14 06:42:42;;;;;;;216.18;40.67;;;;;;;;;;5074100;28;20047;-73
2022/01/14 06:45:09;;;;;;;180.52;38.65;;;;;;;;;;5073832;28;20107;-73
2022/01/14 06:47:35;;;;;;;185.95;39.42;;;;;;;;;;5055869;28;20390;-73
2022/01/14 06:50:01;;;;;;;186.98;38.47;;;;;;;;;;5073801;28;20477;-73
2022/01/14 06:52:27;;;;;;;248.85;42.97;;;;;;;;;;5084005;28;20494;-73
2022/01/14 06:54:53;;;;;;;207.18;40.40;;;;;;;;;;5093877;28;20030;-73
2022/01/14 06:57:24;;;;;;;207.95;40.53;;;;;;;;;;5091884;28;20048;-73
2022/01/14 06:59:50;;;;;;;154.10;36.10;;;;;;;;;;5075398;28;20024;-73
2022/01/14 07:02:16;;;;;;;200.93;39.35;;;;;;;;;;5093531;28;20031;-73
2022/01/14 07:04:42;;;;;;;188.70;37.95;;;;;;;;;;5093645;28;20024;-73
2022/01/14 07:07:08;;;;;;;228.00;41.47;;;;;;;;;;5093563;28;20047;-73
2022/01/14 07:09:38;;;;;;;137.10;34.05;;;;;;;;;;5093566;28;20063;-73
2022/01/14 07:12:05;;;;;;;145.00;36.30;;;;;;;;;;5093536;28;20415;-73
2022/01/14 07:14:31;;;;;;;144.57;36.22;;;;;;;;;;5093360;28;20031;-73
2022/01/14 07:16:57;;;;;;;125.85;33.00;;;;;;;;;;5093592;28;20028;-73
2022/01/14 07:19:23;;;;;;;135.93;35.00;;;;;;;;;;5093386;28;20052;-73
2022/01/14 07:21:50;;;;;;;122.18;33.40;;;;;;;;;;5093296;28;20434;-73
2022/01/14 07:24:17;;;;;;;150.88;36.42;;;;;;;;;;5093280;28;20032;-73
2022/01/14 07:26:43;;;;;;;145.75;35.72;;;;;;;;;;5093282;28;20061;-73
2022/01/14 07:29:09;;;;;;;129.05;34.50;;;;;;;;;;5093022;28;20386;-73
2022/01/14 07:31:35;;;;;;;125.60;35.53;;;;;;;;;;5073052;28;20425;-73
2022/01/14 07:34:01;;;;;;;155.40;38.88;;;;;;;;;;5072717;28;20044;-73
2022/01/14 07:36:28;;;;;;;133.68;33.78;;;;;;;;;;5072828;28;20024;-73
2022/01/14 07:38:54;;;;;;;118.07;34.67;;;;;;;;;;5072847;28;20054;-73
2022/01/14 07:41:20;;;;;;;135.00;35.17;;;;;;;;;;5072665;28;20359;-73
2022/01/14 07:43:48;;;;;;;148.32;38.38;;;;;;;;;;5072762;28;20020;-73
2022/01/14 07:46:14;;;;;;;166.88;40.17;;;;;;;;;;5072615;28;20036;-73
2022/01/14 07:48:40;;;;;;;160.02;37.05;;;;;;;;;;5072706;28;20512;-73
2022/01/14 07:51:08;;;;;;;158.80;38.25;;;;;;;;;;5072528;28;20056;-73
2022/01/14 07:53:34;;;;;;;160.73;40.38;;;;;;;;;;5092125;28;20120;-73
2022/01/14 07:56:00;;;;;;;189.10;44.15;;;;;;;;;;5092765;28;20032;-73
2022/01/14 07:58:27;;;;;;;186.27;44.05;;;;;;;;;;5072402;28;20052;-73
2022/01/14 08:00:53;;;;;;;195.40;44.10;;;;;;;;;;5092791;28;20381;-73
2022/01/14 08:03:19;;;;;;;183.45;41.58;;;;;;;;;;5092316;28;20478;-73
2022/01/14 08:05:46;;;;;;;142.55;37.00;;;;;;;;;;5092369;28;20036;-73
2022/01/14 08:08:12;;;;;;;140.45;35.92;;;;;;;;;;5092521;28;20088;-73
2022/01/14 08:10:38;;;;;;;138.23;35.28;;;;;;;;;;5092564;28;20095;-73
2022/01/14 08:13:04;;;;;;;116.88;32.97;;;;;;;;;;5101758;28;20485;-73
2022/01/14 08:15:31;;;;;;;129.50;35.78;;;;;;;;;;5111466;28;20111;-74
2022/01/14 08:17:59;;;;;;;100.47;32.75;;;;;;;;;;5107805;28;20019;-74
2022/01/14 08:20:25;;;;;;;101.85;32.17;;;;;;;;;;5112194;28;20032;-74
2022/01/14 08:22:51;;;;;;;102.15;31.42;;;;;;;;;;5111792;28;20024;-74
2022/01/14 08:25:17;;;;;;;83.65;29.23;;;;;;;;;;5111597;28;20088;-74
2022/01/14 08:27:43;;;;;;;72.75;27.42;;;;;;;;;;5098220;28;20390;-74
2022/01/14 08:30:09;;;;;;;80.68;27.27;;;;;;;;;;5086391;28;20081;-74
2022/01/14 08:32:35;;;;;;;78.20;27.60;;;;;;;;;;5090628;28;20044;-73
2022/01/14 08:35:01;;;;;;;75.55;26.67;;;;;;;;;;5095813;28;20035;-74
2022/01/14 08:37:27;;;;;;;84.88;28.05;;;;;;;;;;5111655;28;20151;-74
2022/01/14 08:39:53;;;;;;;75.35;26.27;;;;;;;;;;5111809;28;20047;-74
2022/01/14 08:42:19;;;;;;;65.97;25.13;;;;;;;;;;5111383;28;20070;-74
2022/01/14 08:44:45;;;;;;;68.55;26.17;;;;;;;;;;5111672;28;20040;-74
2022/01/14 08:47:11;;;;;;;72.00;26.50;;;;;;;;;;5111598;28;20476;-74
2022/01/14 08:49:38;;;;;;;76.90;26.40;;;;;;;;;;5111409;28;20019;-74
2022/01/14 08:52:04;;;;;;;74.57;27.05;;;;;;;;;;5111500;28;20041;-73
2022/01/14 08:54:31;;;;;;;73.05;27.67;;;;;;;;;;5111169;28;20027;-74
2022/01/14 08:56:58;;;;;;;63.25;25.15;;;;;;;;;;5108587;28;20048;-74
2022/01/14 08:59:24;;;;;;;69.65;26.38;;;;;;;;;;5111581;28;20015;-74
2022/01/14 09:01:50;;;;;;;77.78;28.08;;;;;;;;;;5111363;28;20519;-74
2022/01/14 09:04:16;;;;;;;66.53;27.05;;;;;;;;;;5111246;28;20028;-74
2022/01/14 09:06:42;;;;;;;63.50;25.30;;;;;;;;;;5111255;28;20012;-74
2022/01/14 09:09:08;;;;;;;69.75;26.55;;;;;;;;;;5111199;28;20491;-74
2022/01/14 09:11:35;;;;;;;66.35;24.92;;;;;;;;;;5111206;28;20034;-74
2022/01/14 09:14:01;;;;;;;61.80;25.70;;;;;;;;;;5110391;28;20047;-74
2022/01/14 09:16:27;;;;;;;62.90;24.90;;;;;;;;;;5111269;28;20101;-74
2022/01/14 09:18:53;;;;;;;62.60;25.42;;;;;;;;;;5111044;28;20015;-74
2022/01/14 09:21:19;;;;;;;66.78;26.27;;;;;;;;;;5111084;28;20568;-74
2022/01/14 09:24:03;;;;;;;69.97;26.20;;;;;;;;;;5111007;28;20024;-74
2022/01/14 09:26:29;;;;;;;72.03;27.17;;;;;;;;;;5113571;28;20037;-74
2022/01/14 09:28:55;;;;;;;78.03;27.27;;;;;;;;;;5115220;28;20049;-74
2022/01/14 09:31:21;;;;;;;82.25;29.10;;;;;;;;;;5114078;28;20027;-74
2022/01/14 09:33:46;;;;;;;90.43;29.75;;;;;;;;;;5115249;28;20465;-74
2022/01/14 09:36:13;;;;;;;75.57;29.63;;;;;;;;;;5115146;28;20023;-74
2022/01/14 09:38:39;;;;;;;61.28;24.92;;;;;;;;;;5115251;28;20023;-73
2022/01/14 09:41:06;;;;;;;75.22;27.70;;;;;;;;;;5115482;28;20019;-74
2022/01/14 09:43:36;;;;;;;70.07;27.52;;;;;;;;;;5115596;28;20058;-74
2022/01/14 09:46:05;;;;;;;59.67;26.42;;;;;;;;;;5115581;28;20085;-74
2022/01/14 09:48:31;;;;;;;72.40;27.35;;;;;;;;;;5115431;28;20401;-74
2022/01/14 09:50:58;;;;;;;64.78;25.85;;;;;;;;;;5115606;28;20031;-74
2022/01/14 09:53:25;;;;;;;63.63;26.15;;;;;;;;;;5115154;28;20020;-73
2022/01/14 09:55:51;;;;;;;65.80;25.45;;;;;;;;;;5115565;28;20372;-73
2022/01/14 09:58:17;;;;;;;64.22;26.60;;;;;;;;;;5091423;28;20336;-73
2022/01/14 10:00:44;;;;;;;56.75;24.55;;;;;;;;;;5074803;28;20078;-73
2022/01/14 10:03:20;;;;;;;55.40;25.52;;;;;;;;;;5074690;28;20087;-73
2022/01/14 10:05:51;;;;;;;59.90;24.98;;;;;;;;;;5074637;28;20110;-73
2022/01/14 10:08:21;;;;;;;51.53;24.67;;;;;;;;;;5074389;28;20025;-73
2022/01/14 10:10:53;;;;;;;57.22;24.42;;;;;;;;;;5074738;28;20028;-73
2022/01/14 10:13:20;;;;;;;53.95;23.90;;;;;;;;;;5074586;28;20459;-73
2022/01/14 10:15:47;;;;;;;57.28;24.95;;;;;;;;;;5074499;28;20047;-73
2022/01/14 10:18:14;;;;;;;48.25;23.52;;;;;;;;;;5091572;28;20493;-72
2022/01/14 10:20:40;;;;;;;56.17;23.00;;;;;;;;;;5115295;28;20403;-72
2022/01/14 10:23:06;;;;;;;47.35;23.17;;;;;;;;;;5114928;28;20491;-72
2022/01/14 10:25:32;;;;;;;47.03;24.00;;;;;;;;;;5114947;28;20107;-72
2022/01/14 10:28:01;;;;;;;49.72;22.92;;;;;;;;;;5114768;28;20103;-72
2022/01/14 10:30:32;;;;;;;46.65;22.23;;;;;;;;;;5103567;28;20035;-72
2022/01/14 10:33:00;;;;;;;47.78;23.38;;;;;;;;;;5094063;28;20036;-72
2022/01/14 10:35:27;;;;;;;43.88;21.10;;;;;;;;;;5089215;28;20639;-72
2022/01/14 10:37:56;;;;;;;42.50;22.98;;;;;;;;;;5076531;28;20048;-72
2022/01/14 10:40:23;;;;;;;48.65;24.23;;;;;;;;;;5074009;28;20032;-72
2022/01/14 10:42:50;;;;;;;49.13;24.13;;;;;;;;;;5073079;28;20043;-72
2022/01/14 10:45:22;;;;;;;51.50;24.38;;;;;;;;;;5072701;28;20034;-72
2022/01/14 10:47:52;;;;;;;50.33;23.73;;;;;;;;;;5073984;28;20032;-72
2022/01/14 10:50:19;;;;;;;59.33;24.67;;;;;;;;;;5073762;28;20589;-72
2022/01/14 10:52:49;;;;;;;51.47;24.00;;;;;;;;;;5073780;28;20066;-72
2022/01/14 10:55:26;;;;;;;45.72;22.23;;;;;;;;;;5073490;28;20497;-72
2022/01/14 10:57:52;;;;;;;51.80;23.77;;;;;;;;;;5073429;28;20122;-72
2022/01/14 11:00:23;;;;;;;59.08;23.80;;;;;;;;;;5073525;28;20064;-72
2022/01/14 11:02:49;;;;;;;47.95;22.33;;;;;;;;;;5073665;28;20023;-72
2022/01/14 11:05:19;;;;;;;49.92;23.02;;;;;;;;;;5073508;28;20024;-72
2022/01/14 11:07:46;;;;;;;55.70;24.30;;;;;;;;;;5073429;28;20053;-72
2022/01/14 11:10:23;;;;;;;50.05;22.42;;;;;;;;;;5073419;28;20033;-72
2022/01/14 11:12:50;;;;;;;51.42;23.40;;;;;;;;;;5073296;28;20029;-72
2022/01/14 11:15:16;;;;;;;51.28;23.30;;;;;;;;;;5073408;28;20029;-72
2022/01/14 11:17:49;;;;;;;46.25;22.95;;;;;;;;;;5073377;28;20024;-72
2022/01/14 11:20:20;;;;;;;55.42;24.25;;;;;;;;;;5073466;28;20081;-72
2022/01/14 11:25:31;;;;;;;52.08;24.27;;;;;;;;;;5072900;28;20507;-72
2022/01/14 11:27:59;;;;;;;51.08;23.05;;;;;;;;;;5073106;28;20024;-72
2022/01/14 11:30:32;;;;;;;54.00;25.30;;;;;;;;;;5083816;28;20180;-72
2022/01/14 11:33:02;;;;;;;50.95;24.98;;;;;;;;;;5093415;28;20035;-72
2022/01/14 11:35:28;;;;;;;49.83;24.92;;;;;;;;;;5093331;28;20081;-72
2022/01/14 11:37:54;;;;;;;47.00;23.95;;;;;;;;;;5112490;28;20031;-72
2022/01/14 11:40:20;;;;;;;44.75;23.15;;;;;;;;;;5112633;28;20028;-73
2022/01/14 11:42:46;;;;;;;53.90;26.00;;;;;;;;;;5112796;28;20034;-73
2022/01/14 11:45:33;;;;;;;60.30;25.13;;;;;;;;;;5112696;28;20156;-73
2022/01/14 11:48:01;;;;;;;54.45;24.40;;;;;;;;;;5088610;28;20504;-73
2022/01/14 11:50:33;;;;;;;60.33;24.60;;;;;;;;;;5110908;28;20073;-73
2022/01/14 11:52:59;;;;;;;48.80;24.42;;;;;;;;;;5112479;28;20019;-73
2022/01/14 11:55:31;;;;;;;55.95;24.55;;;;;;;;;;5112418;28;20465;-73
2022/01/14 11:58:02;;;;;;;54.63;24.55;;;;;;;;;;5109670;28;20047;-73
2022/01/14 12:00:33;;;;;;;53.95;25.40;;;;;;;;;;5111061;28;20559;-73
2022/01/14 12:03:09;;;;;;;56.15;25.10;;;;;;;;;;5108640;28;20011;-73
2022/01/14 12:05:37;;;;;;;54.90;25.73;;;;;;;;;;5111566;28;20030;-73
2022/01/14 12:10:39;;;;;;;63.22;26.30;;;;;;;;;;5124549;27;1421948;-74
2022/01/14 12:13:31;;;;;;;53.95;26.15;;;;;;;;;;5150783;27;20041;-75
2022/01/14 12:16:03;;;;;;;56.03;26.15;;;;;;;;;;5150818;27;20091;-76
2022/01/14 12:18:48;;;;;;;55.85;25.77;;;;;;;;;;5150720;27;20027;-75
2022/01/14 12:21:14;;;;;;;51.88;25.17;;;;;;;;;;5150631;27;20106;-74
2022/01/14 12:23:40;;;;;;;56.35;25.52;;;;;;;;;;5150501;27;20103;-74
2022/01/14 12:26:17;;;;;;;56.22;25.88;;;;;;;;;;5150619;27;20027;-73
2022/01/14 12:28:46;;;;;;;56.35;25.08;;;;;;;;;;5150238;27;20062;-73
2022/01/14 12:31:12;;;;;;;54.90;26.55;;;;;;;;;;5132396;27;20028;-73
2022/01/14 12:33:39;;;;;;;58.10;27.45;;;;;;;;;;5129538;28;20032;-73
2022/01/14 12:36:19;;;;;;;59.40;26.70;;;;;;;;;;5128773;28;20019;-73
2022/01/14 12:38:45;;;;;;;53.35;25.67;;;;;;;;;;5129247;28;20035;-73
2022/01/14 12:41:15;;;;;;;51.95;23.90;;;;;;;;;;5128640;28;20106;-73
2022/01/14 12:43:47;;;;;;;53.22;26.52;;;;;;;;;;5129216;28;20510;-73
2022/01/14 12:46:24;;;;;;;;;;;;;;;;;;5129633;28;20448;-73
2022/01/14 12:48:56;;;;;;;50.75;24.02;;;;;;;;;;5129152;28;19962;-73
2022/01/14 12:51:22;;;;;;;49.08;24.92;;;;;;;;;;5129387;28;20028;-73
2022/01/14 12:53:53;;;;;;;57.67;27.15;;;;;;;;;;5129210;28;20035;-73
2022/01/14 12:56:20;;;;;;;78.03;39.00;;;;;;;;;;5127729;27;20024;-73
2022/01/14 12:58:52;;;;;;;60.08;29.45;;;;;;;;;;5145044;27;20030;-73
2022/01/14 13:01:18;;;;;;;62.10;27.27;;;;;;;;;;5149798;27;20034;-73
2022/01/14 13:03:48;;;;;;;56.72;25.65;;;;;;;;;;5149608;27;20026;-73
2022/01/14 13:06:13;;;;;;;51.38;25.77;;;;;;;;;;5149683;27;20031;-73
2022/01/14 13:08:40;;;;;;;62.53;28.75;;;;;;;;;;5149303;27;20038;-73
2022/01/14 13:11:06;;;;;;;57.08;27.35;;;;;;;;;;5130880;27;20381;-73
2022/01/14 13:13:33;;;;;;;66.25;30.38;;;;;;;;;;5149214;27;20069;-73
2022/01/14 13:16:06;;;;;;;58.22;29.13;;;;;;;;;;5149403;27;20098;-73
2022/01/14 13:18:43;;;;;;;57.22;27.08;;;;;;;;;;5149360;27;20102;-73
2022/01/14 13:21:09;;;;;;;65.50;29.58;;;;;;;;;;5140131;27;20465;-73
2022/01/14 13:23:35;;;;;;;62.75;28.35;;;;;;;;;;5116910;27;20023;-73
2022/01/14 13:26:01;;;;;;;66.90;31.88;;;;;;;;;;5135591;27;20488;-73
2022/01/14 13:28:27;;;;;;;94.50;59.88;;;;;;;;;;5134544;27;20030;-73
2022/01/14 13:30:54;;;;;;;71.95;34.22;;;;;;;;;;5134979;27;20019;-73
2022/01/14 13:33:20;;;;;;;58.17;28.65;;;;;;;;;;5134446;27;20022;-74
2022/01/14 13:35:48;;;;;;;62.40;29.55;;;;;;;;;;5134605;27;20019;-74
2022/01/14 13:38:16;;;;;;;62.53;31.48;;;;;;;;;;5115943;27;20022;-74
2022/01/14 13:40:42;;;;;;;65.68;29.52;;;;;;;;;;5134412;27;20046;-74
2022/01/14 13:43:21;;;;;;;57.90;27.65;;;;;;;;;;5115517;27;20019;-74
2022/01/14 13:45:48;;;;;;;52.58;25.55;;;;;;;;;;5134175;27;20023;-74
2022/01/14 13:48:26;;;;;;;61.35;26.88;;;;;;;;;;5134252;27;20381;-74
2022/01/14 13:51:09;;;;;;;51.88;26.50;;;;;;;;;;5115480;27;20476;-73
2022/01/14 13:53:42;;;;;;;58.00;27.40;;;;;;;;;;5133200;27;20159;-73
2022/01/14 13:56:22;;;;;;;58.00;28.30;;;;;;;;;;5133631;27;20015;-74
2022/01/14 13:58:51;;;;;;;53.05;27.83;;;;;;;;;;5114926;27;20327;-73
2022/01/14 14:01:18;;;;;;;73.00;26.58;;;;;;;;;;5134133;27;20051;-74
2022/01/14 14:03:55;;;;;;;57.80;29.23;;;;;;;;;;5134041;27;20020;-74
2022/01/14 14:06:29;;;;;;;56.15;27.35;;;;;;;;;;5115150;27;20547;-74
2022/01/14 14:16:48;;;;;;;61.67;28.02;;;;;;;;;;5133958;27;20163;-73
2022/01/14 14:19:15;;;;;;;56.70;27.80;;;;;;;;;;5133633;27;20083;-73
2022/01/14 14:21:44;;;;;;;54.65;25.77;;;;;;;;;;5131032;27;20019;-73
2022/01/14 14:24:12;;;;;;;54.85;26.95;;;;;;;;;;5133696;27;20030;-73
2022/01/14 14:26:39;;;;;;;55.50;26.70;;;;;;;;;;5133283;27;20019;-73
2022/01/14 14:29:23;;;;;;;57.25;27.73;;;;;;;;;;5133845;27;20051;-73
2022/01/14 14:31:49;;;;;;;54.13;28.58;;;;;;;;;;5113248;28;20015;-74
2022/01/14 14:34:15;;;;;;;52.35;26.92;;;;;;;;;;5133663;27;20035;-74
2022/01/14 14:36:42;;;;;;;63.25;28.80;;;;;;;;;;5133866;27;20030;-74
2022/01/14 14:39:10;;;;;;;53.20;27.92;;;;;;;;;;5133836;27;20030;-74
2022/01/14 14:41:36;;;;;;;61.35;28.60;;;;;;;;;;5133783;27;20365;-75
2022/01/14 14:44:02;;;;;;;67.15;30.30;;;;;;;;;;5133706;27;20106;-75
2022/01/14 14:46:29;;;;;;;63.75;29.13;;;;;;;;;;5133595;27;20038;-74
2022/01/14 14:48:55;;;;;;;58.28;29.90;;;;;;;;;;5133394;27;20023;-75
2022/01/14 14:51:21;;;;;;;64.72;33.28;;;;;;;;;;5130900;27;20022;-74
2022/01/14 14:53:47;;;;;;;68.32;31.02;;;;;;;;;;5114564;27;20039;-74
2022/01/14 14:56:13;;;;;;;62.13;30.00;;;;;;;;;;5112892;27;20100;-74